Rockledge, FL

06:12 EDT je la 27an de marto 2015 (GMT -0400)
Indian River Club | | Change Station
CLOSE
Current Station
Personaj Veter-Stacioj
Location: Rockledge, FL
Alteco: 12 ft
Najbaraj veter-stacioj

Elev 12 ft 28.33 °N, 80.72 °W | Updated 19 seconds ago

Pluvo
Pluvo
67.0 °F
Sentas kiel 67.0 °F
N
2.0
Vento Varianta Vento from Sudo
Gusts 3.0 mej/h

hodiaŭ
High -- | Low -- °F
--% Ebla precip.
hieraŭ
High -- | Low -- °F
Precip. -- co
7:19 AM 7:37 PM
Kreskanta Lunarko, 51% visible
Aerpremo 29.86 co
Vidodistanco 10.0 mejloj
Nuboj Sennuba
Rosopunkto 65 °F
Humido 92%
Pluvokvanto 0.00 co
Neĝprofundo Not available.
UV 0 out of 12
Pollen 10.20 out of 12
Aerkvalito Not available.
Flu Activity Not available.
METAR KCOF 270958Z AUTO 23004KT 10SM CLR 21/18 A2985 RMK AO2 DZB01E11DZB12E21RAB21E37DZB37E43 SLP112 P0001 T02050181 CHINO RWY02 $

More Conditions Fewer Conditions

Aerpremo 29.86 co
Vidodistanco 10.0 mejloj
Nuboj Sennuba
Rosopunkto 65 °F
Humido 92%
Pluvokvanto 0.00 co
Neĝprofundo Not available.
UV 0 out of 12
Pollen 10.20 out of 12
Aerkvalito Not available.
Flu Activity Not available.
METAR KCOF 270958Z AUTO 23004KT 10SM CLR 21/18 A2985 RMK AO2 DZB01E11DZB12E21RAB21E37DZB37E43 SLP112 P0001 T02050181 CHINO RWY02 $

More Conditions Fewer Conditions

Nowcast | as of 3:10 am EDT on March 27, 2015

A band of showers will move toward the northeast at 40 to 45 mph across lake...Volusia...Seminole...Orange...Osceola and North Brevard counties through sunrise. A brief heavy downpour and gusty wind up to 35 mph will be possible in the stronger cells. Additional details...including graphics are available online at: http://www.Srh.NOAA.Gov/mlb/blog.Php

×

10-Day Weather Forecast

Almanac

Astronomio

Mar. 27, 2015 Leviĝo Subiro
Aktuala tempo
Civila krepusko
Naŭtika krepusko
Astronomia krepusko
Luno
Daŭro de videbla lumo
Daŭro de tago
Tomorrow will be .
, % of the Moon is Illuminated

Hodiaŭaj ekstremaĵoj

State Highs State Lows

Community

WunderPhotos

Upload Photos

1,808,705 photos uploaded!

WunderBlogs® & News

Nearby

Aerkvalito

  Aerkvalito Aerkvalita indico Poluanto
Not available.

Neĝa profundeco

Station Depth Alteco

Earthquake Activity

Urbo Distance Mag. Time & Date
Minimum magnitude displayed is 2.5.

Coastal Water Temperatures

Loko Temperaturo

Stations

Najbaraj veter-stacioj

Loko de stacio Temp Venta
kvazaŭtemperaturo
Rosopunkto Humido Vento Precip. Elev Ĝisdatigita je Tipo